Startpagina
METAR-TAF:

METAR-TAF

Vliegvelden :

Cranfield, Engeland

breedte: 52-04N, lengte: 000-37W, hoogte: 111 m

Actueel weer

Dit bericht is 4 uur en het 43 minuten geleden gemaakt, om 15:20 UTC
Wind 12 kt uit het noordoosten
Temperatuur 14°C
Vochtigheid 77%
Druk 1008 hPa
Zicht 10 km of meer
Verspreide wolken op 2000 ft
regenbuien

METAR: EGTC 031520Z 04012KT 9999 SHRA SCT020 14/10 Q1008

Tijdstip: 21:03 (20:03 UTC)

Verwachting

Dit bericht is 8 uur en het 28 minuten geleden gemaakt, om 11:35 UTC
Verwachting geldig van 03 om 11 UTC tot 03 om 16 UTC
Wind 10 kt uit het noordoosten
Zicht 10 km of meer
geen wolken onder 1500 m en geen cumulonimbus
Wijzigt naar
van 03 om 12 UTC tot 03 om 15 UTC
Gebroken wolken op 4000 ft
Tijdelijke
van 03 om 12 UTC tot 03 om 16 UTC
Zicht: 8000 m
lichte regen
Kans 30% :
Tijdelijke
van 03 om 12 UTC tot 03 om 16 UTC
Gebroken wolken op 1200 ft
regen

TAF: EGTC 031135Z 0311/0316 04010KT CAVOK BECMG 0312/0315 BKN040 TEMPO 0312/0316 8000 -RA PROB30 TEMPO 0312/0316 RA BKN012

Waarnemingen en weersverwachtingen van meer dan 4000 vliegvelden (METAR en TAF).

De beschikbare stations zijn de gele en rode punten op de kaart.

Ga met uw muis naar het station om de naam te zien.

Klik dan om waarnemingen en weersverwachtingen te zien.

kaart wijzigen: klik op de groene knoppen met een zwart kruis om in te zoomen, op de groene knop met een streepje om uit te zoomen of op de groene pijlen voor aangrenzende kaarten.


METAR-TAF: